sensor_id;sensor_type;location;lat;lon;timestamp;temperature;humidity
32612;DHT22;19030;49.478;8.986;2023-04-24T00:00:57;10.40;99.90
32612;DHT22;19030;49.478;8.986;2023-04-24T00:02:59;10.40;99.90
32612;DHT22;19030;49.478;8.986;2023-04-24T00:05:00;10.40;99.90
32612;DHT22;19030;49.478;8.986;2023-04-24T00:07:03;10.40;99.90
32612;DHT22;19030;49.478;8.986;2023-04-24T00:09:03;10.40;99.90
32612;DHT22;19030;49.478;8.986;2023-04-24T00:11:05;10.40;99.90
32612;DHT22;19030;49.478;8.986;2023-04-24T00:13:05;10.40;99.90
32612;DHT22;19030;49.478;8.986;2023-04-24T00:15:06;10.50;99.90
32612;DHT22;19030;49.478;8.986;2023-04-24T00:17:07;10.50;99.90
32612;DHT22;19030;49.478;8.986;2023-04-24T00:19:08;10.50;99.90
32612;DHT22;19030;49.478;8.986;2023-04-24T00:21:08;10.40;99.90
32612;DHT22;19030;49.478;8.986;2023-04-24T00:23:09;10.40;99.90
32612;DHT22;19030;49.478;8.986;2023-04-24T00:25:09;10.40;99.90
32612;DHT22;19030;49.478;8.986;2023-04-24T00:27:10;10.40;99.90
32612;DHT22;19030;49.478;8.986;2023-04-24T00:29:11;10.40;99.90
32612;DHT22;19030;49.478;8.986;2023-04-24T00:31:12;10.40;99.90
32612;DHT22;19030;49.478;8.986;2023-04-24T00:33:12;10.40;99.90
32612;DHT22;19030;49.478;8.986;2023-04-24T00:35:13;10.40;99.90
32612;DHT22;19030;49.478;8.986;2023-04-24T00:37:14;10.40;99.90
32612;DHT22;19030;49.478;8.986;2023-04-24T00:39:19;10.40;99.90
32612;DHT22;19030;49.478;8.986;2023-04-24T00:41:20;10.40;99.90
32612;DHT22;19030;49.478;8.986;2023-04-24T00:43:21;10.40;99.90
32612;DHT22;19030;49.478;8.986;2023-04-24T00:45:22;10.50;99.90
32612;DHT22;19030;49.478;8.986;2023-04-24T00:47:22;10.50;99.90
32612;DHT22;19030;49.478;8.986;2023-04-24T00:49:24;10.50;99.90
32612;DHT22;19030;49.478;8.986;2023-04-24T00:51:24;10.50;99.90
32612;DHT22;19030;49.478;8.986;2023-04-24T00:53:25;10.50;99.90
32612;DHT22;19030;49.478;8.986;2023-04-24T00:55:25;10.60;99.90
32612;DHT22;19030;49.478;8.986;2023-04-24T00:57:27;10.60;99.90
32612;DHT22;19030;49.478;8.986;2023-04-24T00:59:28;10.60;99.90
32612;DHT22;19030;49.478;8.986;2023-04-24T01:01:29;10.60;99.90
32612;DHT22;19030;49.478;8.986;2023-04-24T01:03:31;10.60;99.90
32612;DHT22;19030;49.478;8.986;2023-04-24T01:05:32;10.60;99.90
32612;DHT22;19030;49.478;8.986;2023-04-24T01:07:33;10.60;99.90
32612;DHT22;19030;49.478;8.986;2023-04-24T01:09:36;10.60;99.90
32612;DHT22;19030;49.478;8.986;2023-04-24T01:11:38;10.60;99.90
32612;DHT22;19030;49.478;8.986;2023-04-24T01:13:40;10.60;99.90
32612;DHT22;19030;49.478;8.986;2023-04-24T01:15:40;10.60;99.90
32612;DHT22;19030;49.478;8.986;2023-04-24T01:17:42;10.60;99.90
32612;DHT22;19030;49.478;8.986;2023-04-24T01:19:42;10.60;99.90
32612;DHT22;19030;49.478;8.986;2023-04-24T01:21:47;10.60;99.90
32612;DHT22;19030;49.478;8.986;2023-04-24T01:23:49;10.60;99.90
32612;DHT22;19030;49.478;8.986;2023-04-24T01:25:52;10.60;99.90
32612;DHT22;19030;49.478;8.986;2023-04-24T01:27:53;10.50;99.90
32612;DHT22;19030;49.478;8.986;2023-04-24T01:29:53;10.50;99.90
32612;DHT22;19030;49.478;8.986;2023-04-24T01:31:55;10.50;99.90
32612;DHT22;19030;49.478;8.986;2023-04-24T01:33:56;10.50;99.90
32612;DHT22;19030;49.478;8.986;2023-04-24T01:35:57;10.50;99.90
32612;DHT22;19030;49.478;8.986;2023-04-24T01:37:57;10.50;99.90
32612;DHT22;19030;49.478;8.986;2023-04-24T01:39:59;10.50;99.90
32612;DHT22;19030;49.478;8.986;2023-04-24T01:42:00;10.50;99.90
32612;DHT22;19030;49.478;8.986;2023-04-24T01:44:02;10.50;99.90
32612;DHT22;19030;49.478;8.986;2023-04-24T01:46:03;10.50;99.90
32612;DHT22;19030;49.478;8.986;2023-04-24T01:48:04;10.50;99.90
32612;DHT22;19030;49.478;8.986;2023-04-24T01:50:05;10.50;99.90
32612;DHT22;19030;49.478;8.986;2023-04-24T01:52:06;10.50;99.90
32612;DHT22;19030;49.478;8.986;2023-04-24T01:54:06;10.50;99.90
32612;DHT22;19030;49.478;8.986;2023-04-24T01:56:07;10.50;99.90
32612;DHT22;19030;49.478;8.986;2023-04-24T01:58:08;10.50;99.90
32612;DHT22;19030;49.478;8.986;2023-04-24T02:00:09;10.50;99.90
32612;DHT22;19030;49.478;8.986;2023-04-24T02:02:14;10.40;99.90
32612;DHT22;19030;49.478;8.986;2023-04-24T02:04:15;10.40;99.90
32612;DHT22;19030;49.478;8.986;2023-04-24T02:06:15;10.40;99.90
32612;DHT22;19030;49.478;8.986;2023-04-24T02:08:16;10.40;99.90
32612;DHT22;19030;49.478;8.986;2023-04-24T02:10:17;10.40;99.90
32612;DHT22;19030;49.478;8.986;2023-04-24T02:12:17;10.40;99.90
32612;DHT22;19030;49.478;8.986;2023-04-24T02:14:18;10.40;99.90
32612;DHT22;19030;49.478;8.986;2023-04-24T02:16:18;10.40;99.90
32612;DHT22;19030;49.478;8.986;2023-04-24T02:18:19;10.40;99.90
32612;DHT22;19030;49.478;8.986;2023-04-24T02:20:20;10.40;99.90
32612;DHT22;19030;49.478;8.986;2023-04-24T02:22:20;10.40;99.90
32612;DHT22;19030;49.478;8.986;2023-04-24T02:24:21;10.40;99.90
32612;DHT22;19030;49.478;8.986;2023-04-24T02:26:21;10.50;99.90
32612;DHT22;19030;49.478;8.986;2023-04-24T02:28:22;10.50;99.90
32612;DHT22;19030;49.478;8.986;2023-04-24T02:30:24;10.50;99.90
32612;DHT22;19030;49.478;8.986;2023-04-24T02:32:25;10.50;99.90
32612;DHT22;19030;49.478;8.986;2023-04-24T02:34:26;10.50;99.90
32612;DHT22;19030;49.478;8.986;2023-04-24T02:36:26;10.50;99.90
32612;DHT22;19030;49.478;8.986;2023-04-24T02:38:27;10.50;99.90
32612;DHT22;19030;49.478;8.986;2023-04-24T02:40:27;10.50;99.90
32612;DHT22;19030;49.478;8.986;2023-04-24T02:42:28;10.50;99.90
32612;DHT22;19030;49.478;8.986;2023-04-24T02:44:28;10.50;99.90
32612;DHT22;19030;49.478;8.986;2023-04-24T02:46:29;10.50;99.90
32612;DHT22;19030;49.478;8.986;2023-04-24T02:48:30;10.50;99.90
32612;DHT22;19030;49.478;8.986;2023-04-24T02:50:30;10.50;99.90
32612;DHT22;19030;49.478;8.986;2023-04-24T02:52:32;10.50;99.90
32612;DHT22;19030;49.478;8.986;2023-04-24T02:54:32;10.50;99.90
32612;DHT22;19030;49.478;8.986;2023-04-24T02:56:33;10.50;99.90
32612;DHT22;19030;49.478;8.986;2023-04-24T02:58:35;10.40;99.90
32612;DHT22;19030;49.478;8.986;2023-04-24T03:00:36;10.40;99.90
32612;DHT22;19030;49.478;8.986;2023-04-24T03:02:36;10.40;99.90
32612;DHT22;19030;49.478;8.986;2023-04-24T03:04:37;10.50;99.90
32612;DHT22;19030;49.478;8.986;2023-04-24T03:06:37;10.50;99.90
32612;DHT22;19030;49.478;8.986;2023-04-24T03:08:38;10.50;99.90
32612;DHT22;19030;49.478;8.986;2023-04-24T03:10:38;10.50;99.90
32612;DHT22;19030;49.478;8.986;2023-04-24T03:12:39;10.60;99.90
32612;DHT22;19030;49.478;8.986;2023-04-24T03:14:39;10.50;99.90
32612;DHT22;19030;49.478;8.986;2023-04-24T03:16:40;10.50;99.90
32612;DHT22;19030;49.478;8.986;2023-04-24T03:18:41;10.50;99.90
32612;DHT22;19030;49.478;8.986;2023-04-24T03:20:45;10.50;99.90
32612;DHT22;19030;49.478;8.986;2023-04-24T03:22:47;10.50;99.90
32612;DHT22;19030;49.478;8.986;2023-04-24T03:24:47;10.50;99.90
32612;DHT22;19030;49.478;8.986;2023-04-24T03:26:51;10.60;99.90
32612;DHT22;19030;49.478;8.986;2023-04-24T03:29:21;10.60;99.90
32612;DHT22;19030;49.478;8.986;2023-04-24T03:31:22;10.60;99.90
32612;DHT22;19030;49.478;8.986;2023-04-24T03:33:23;10.60;99.90
32612;DHT22;19030;49.478;8.986;2023-04-24T03:35:35;10.60;99.90
32612;DHT22;19030;49.478;8.986;2023-04-24T03:37:39;10.70;99.90
32612;DHT22;19030;49.478;8.986;2023-04-24T03:40:00;10.70;99.90
32612;DHT22;19030;49.478;8.986;2023-04-24T03:42:01;10.70;99.90
32612;DHT22;19030;49.478;8.986;2023-04-24T03:44:14;10.70;99.90
32612;DHT22;19030;49.478;8.986;2023-04-24T03:46:15;10.70;99.90
32612;DHT22;19030;49.478;8.986;2023-04-24T03:48:21;10.70;99.90
32612;DHT22;19030;49.478;8.986;2023-04-24T03:50:22;10.70;99.90
32612;DHT22;19030;49.478;8.986;2023-04-24T03:52:23;10.70;99.90
32612;DHT22;19030;49.478;8.986;2023-04-24T03:54:26;10.60;99.90
32612;DHT22;19030;49.478;8.986;2023-04-24T03:56:28;10.60;99.90
32612;DHT22;19030;49.478;8.986;2023-04-24T03:58:28;10.50;99.90
32612;DHT22;19030;49.478;8.986;2023-04-24T04:00:30;10.40;99.90
32612;DHT22;19030;49.478;8.986;2023-04-24T04:02:52;10.40;99.90
32612;DHT22;19030;49.478;8.986;2023-04-24T04:04:52;10.30;99.90
32612;DHT22;19030;49.478;8.986;2023-04-24T04:06:53;10.20;99.90
32612;DHT22;19030;49.478;8.986;2023-04-24T04:08:54;10.10;99.90
32612;DHT22;19030;49.478;8.986;2023-04-24T04:10:55;10.10;99.90
32612;DHT22;19030;49.478;8.986;2023-04-24T04:12:57;10.00;99.90
32612;DHT22;19030;49.478;8.986;2023-04-24T04:14:58;10.00;99.90
32612;DHT22;19030;49.478;8.986;2023-04-24T04:16:59;10.00;99.90
32612;DHT22;19030;49.478;8.986;2023-04-24T04:19:00;9.90;99.90
32612;DHT22;19030;49.478;8.986;2023-04-24T04:21:01;9.90;99.90
32612;DHT22;19030;49.478;8.986;2023-04-24T04:23:03;9.80;99.90
32612;DHT22;19030;49.478;8.986;2023-04-24T04:25:15;9.70;99.90
32612;DHT22;19030;49.478;8.986;2023-04-24T04:27:16;9.60;99.90
32612;DHT22;19030;49.478;8.986;2023-04-24T04:29:29;9.60;99.90
32612;DHT22;19030;49.478;8.986;2023-04-24T04:31:30;9.60;99.90
32612;DHT22;19030;49.478;8.986;2023-04-24T04:33:33;9.50;99.90
32612;DHT22;19030;49.478;8.986;2023-04-24T04:35:36;9.50;99.90
32612;DHT22;19030;49.478;8.986;2023-04-24T04:37:37;9.50;99.90
32612;DHT22;19030;49.478;8.986;2023-04-24T04:39:50;9.50;99.90
32612;DHT22;19030;49.478;8.986;2023-04-24T04:41:54;9.50;99.90
32612;DHT22;19030;49.478;8.986;2023-04-24T04:43:57;9.50;99.90
32612;DHT22;19030;49.478;8.986;2023-04-24T04:45:59;9.40;99.90
32612;DHT22;19030;49.478;8.986;2023-04-24T04:48:13;9.40;99.90
32612;DHT22;19030;49.478;8.986;2023-04-24T04:50:15;9.40;99.90
32612;DHT22;19030;49.478;8.986;2023-04-24T04:52:18;9.30;99.90
32612;DHT22;19030;49.478;8.986;2023-04-24T04:54:21;9.20;99.90
32612;DHT22;19030;49.478;8.986;2023-04-24T04:56:21;9.20;99.90
32612;DHT22;19030;49.478;8.986;2023-04-24T04:58:23;9.10;99.90
32612;DHT22;19030;49.478;8.986;2023-04-24T05:00:29;9.10;99.90
32612;DHT22;19030;49.478;8.986;2023-04-24T05:02:34;9.10;99.90
32612;DHT22;19030;49.478;8.986;2023-04-24T05:04:35;9.00;99.90
32612;DHT22;19030;49.478;8.986;2023-04-24T05:06:35;9.00;99.90
32612;DHT22;19030;49.478;8.986;2023-04-24T05:08:36;9.00;99.90
32612;DHT22;19030;49.478;8.986;2023-04-24T05:10:39;9.00;99.90
32612;DHT22;19030;49.478;8.986;2023-04-24T05:12:40;9.00;99.90
32612;DHT22;19030;49.478;8.986;2023-04-24T05:14:41;9.00;99.90
32612;DHT22;19030;49.478;8.986;2023-04-24T05:16:42;9.00;99.90
32612;DHT22;19030;49.478;8.986;2023-04-24T05:18:45;9.10;99.90
32612;DHT22;19030;49.478;8.986;2023-04-24T05:20:48;9.10;99.90
32612;DHT22;19030;49.478;8.986;2023-04-24T05:22:49;9.10;99.90
32612;DHT22;19030;49.478;8.986;2023-04-24T05:24:51;9.10;99.90
32612;DHT22;19030;49.478;8.986;2023-04-24T05:27:06;9.10;99.90
32612;DHT22;19030;49.478;8.986;2023-04-24T05:29:12;9.00;99.90
32612;DHT22;19030;49.478;8.986;2023-04-24T05:31:12;9.10;99.90
32612;DHT22;19030;49.478;8.986;2023-04-24T05:33:13;9.20;99.90
32612;DHT22;19030;49.478;8.986;2023-04-24T05:35:14;9.30;99.90
32612;DHT22;19030;49.478;8.986;2023-04-24T05:37:15;9.40;99.90
32612;DHT22;19030;49.478;8.986;2023-04-24T05:39:15;9.50;99.90
32612;DHT22;19030;49.478;8.986;2023-04-24T05:41:16;9.70;99.90
32612;DHT22;19030;49.478;8.986;2023-04-24T05:43:17;9.80;99.90
32612;DHT22;19030;49.478;8.986;2023-04-24T05:45:18;9.90;99.90
32612;DHT22;19030;49.478;8.986;2023-04-24T05:47:19;10.00;99.90
32612;DHT22;19030;49.478;8.986;2023-04-24T05:49:24;10.20;99.90
32612;DHT22;19030;49.478;8.986;2023-04-24T05:51:25;10.30;99.90
32612;DHT22;19030;49.478;8.986;2023-04-24T05:53:26;10.40;99.90
32612;DHT22;19030;49.478;8.986;2023-04-24T05:55:27;10.40;99.90
32612;DHT22;19030;49.478;8.986;2023-04-24T05:57:28;10.50;99.90
32612;DHT22;19030;49.478;8.986;2023-04-24T05:59:36;10.60;99.90
32612;DHT22;19030;49.478;8.986;2023-04-24T06:01:38;11.10;99.90
32612;DHT22;19030;49.478;8.986;2023-04-24T06:03:44;11.80;99.90
32612;DHT22;19030;49.478;8.986;2023-04-24T06:05:45;12.10;99.90
32612;DHT22;19030;49.478;8.986;2023-04-24T06:07:47;12.20;99.90
32612;DHT22;19030;49.478;8.986;2023-04-24T06:09:48;12.30;99.90
32612;DHT22;19030;49.478;8.986;2023-04-24T06:11:50;12.20;99.90
32612;DHT22;19030;49.478;8.986;2023-04-24T06:13:55;12.20;99.90
32612;DHT22;19030;49.478;8.986;2023-04-24T06:16:19;12.10;99.90
32612;DHT22;19030;49.478;8.986;2023-04-24T06:18:26;12.10;99.90
32612;DHT22;19030;49.478;8.986;2023-04-24T06:20:27;12.50;99.90
32612;DHT22;19030;49.478;8.986;2023-04-24T06:22:28;13.10;99.90
32612;DHT22;19030;49.478;8.986;2023-04-24T06:24:29;13.60;99.90
32612;DHT22;19030;49.478;8.986;2023-04-24T06:26:29;13.40;99.90
32612;DHT22;19030;49.478;8.986;2023-04-24T06:28:30;13.30;99.90
32612;DHT22;19030;49.478;8.986;2023-04-24T06:30:31;13.10;99.90
32612;DHT22;19030;49.478;8.986;2023-04-24T06:32:31;13.40;99.90
32612;DHT22;19030;49.478;8.986;2023-04-24T06:34:33;13.90;99.90
32612;DHT22;19030;49.478;8.986;2023-04-24T06:36:35;14.10;99.90
32612;DHT22;19030;49.478;8.986;2023-04-24T06:38:36;13.90;99.90
32612;DHT22;19030;49.478;8.986;2023-04-24T06:40:37;13.50;99.90
32612;DHT22;19030;49.478;8.986;2023-04-24T06:42:37;12.90;99.90
32612;DHT22;19030;49.478;8.986;2023-04-24T06:44:38;12.40;99.90
32612;DHT22;19030;49.478;8.986;2023-04-24T06:46:41;12.00;99.90
32612;DHT22;19030;49.478;8.986;2023-04-24T06:48:42;11.70;99.90
32612;DHT22;19030;49.478;8.986;2023-04-24T06:50:42;11.40;99.90
32612;DHT22;19030;49.478;8.986;2023-04-24T06:52:43;11.10;99.90
32612;DHT22;19030;49.478;8.986;2023-04-24T06:54:44;11.00;99.90
32612;DHT22;19030;49.478;8.986;2023-04-24T06:56:44;10.80;99.90
32612;DHT22;19030;49.478;8.986;2023-04-24T06:58:48;10.70;99.90
32612;DHT22;19030;49.478;8.986;2023-04-24T07:00:48;10.70;99.90
32612;DHT22;19030;49.478;8.986;2023-04-24T07:02:49;10.70;99.90
32612;DHT22;19030;49.478;8.986;2023-04-24T07:04:49;10.70;99.90
32612;DHT22;19030;49.478;8.986;2023-04-24T07:06:50;10.70;99.90
32612;DHT22;19030;49.478;8.986;2023-04-24T07:08:51;10.80;99.90
32612;DHT22;19030;49.478;8.986;2023-04-24T07:10:52;10.80;99.90
32612;DHT22;19030;49.478;8.986;2023-04-24T07:12:52;10.90;99.90
32612;DHT22;19030;49.478;8.986;2023-04-24T07:14:53;11.10;99.90
32612;DHT22;19030;49.478;8.986;2023-04-24T07:16:53;11.20;99.90
32612;DHT22;19030;49.478;8.986;2023-04-24T07:18:54;11.40;99.90
32612;DHT22;19030;49.478;8.986;2023-04-24T07:20:54;11.30;99.90
32612;DHT22;19030;49.478;8.986;2023-04-24T07:22:55;11.30;99.90
32612;DHT22;19030;49.478;8.986;2023-04-24T07:24:56;11.20;99.90
32612;DHT22;19030;49.478;8.986;2023-04-24T07:26:56;11.10;99.90
32612;DHT22;19030;49.478;8.986;2023-04-24T07:28:57;11.00;99.90
32612;DHT22;19030;49.478;8.986;2023-04-24T07:30:58;10.80;99.90
32612;DHT22;19030;49.478;8.986;2023-04-24T07:33:00;10.80;99.90
32612;DHT22;19030;49.478;8.986;2023-04-24T07:35:00;10.70;99.90
32612;DHT22;19030;49.478;8.986;2023-04-24T07:37:01;10.70;99.90
32612;DHT22;19030;49.478;8.986;2023-04-24T07:39:02;10.60;99.90
32612;DHT22;19030;49.478;8.986;2023-04-24T07:41:03;10.50;99.90
32612;DHT22;19030;49.478;8.986;2023-04-24T07:43:03;10.50;99.90
32612;DHT22;19030;49.478;8.986;2023-04-24T07:45:04;10.50;99.90
32612;DHT22;19030;49.478;8.986;2023-04-24T07:47:05;10.60;99.90
32612;DHT22;19030;49.478;8.986;2023-04-24T07:49:06;10.60;99.90
32612;DHT22;19030;49.478;8.986;2023-04-24T07:51:06;10.70;99.90
32612;DHT22;19030;49.478;8.986;2023-04-24T07:53:07;10.80;99.90
32612;DHT22;19030;49.478;8.986;2023-04-24T07:55:07;10.90;99.90
32612;DHT22;19030;49.478;8.986;2023-04-24T07:57:08;10.90;99.90
32612;DHT22;19030;49.478;8.986;2023-04-24T07:59:10;10.90;99.90
32612;DHT22;19030;49.478;8.986;2023-04-24T08:01:10;10.80;99.90
32612;DHT22;19030;49.478;8.986;2023-04-24T08:03:11;11.00;99.90
32612;DHT22;19030;49.478;8.986;2023-04-24T08:05:12;11.30;99.90
32612;DHT22;19030;49.478;8.986;2023-04-24T08:07:13;11.70;99.90
32612;DHT22;19030;49.478;8.986;2023-04-24T08:09:14;12.40;99.90
32612;DHT22;19030;49.478;8.986;2023-04-24T08:11:15;13.10;99.90
32612;DHT22;19030;49.478;8.986;2023-04-24T08:13:15;13.70;99.90
32612;DHT22;19030;49.478;8.986;2023-04-24T08:15:16;14.30;99.90
32612;DHT22;19030;49.478;8.986;2023-04-24T08:17:17;14.70;99.90
32612;DHT22;19030;49.478;8.986;2023-04-24T08:19:17;14.80;99.90
32612;DHT22;19030;49.478;8.986;2023-04-24T08:21:18;15.40;99.90
32612;DHT22;19030;49.478;8.986;2023-04-24T08:23:20;16.00;99.90
32612;DHT22;19030;49.478;8.986;2023-04-24T08:25:22;16.20;99.20
32612;DHT22;19030;49.478;8.986;2023-04-24T08:27:26;15.70;99.20
32612;DHT22;19030;49.478;8.986;2023-04-24T08:29:26;15.50;99.20
32612;DHT22;19030;49.478;8.986;2023-04-24T08:31:27;15.00;99.30
32612;DHT22;19030;49.478;8.986;2023-04-24T08:33:28;14.50;99.90
32612;DHT22;19030;49.478;8.986;2023-04-24T08:35:34;14.30;99.90
32612;DHT22;19030;49.478;8.986;2023-04-24T08:37:35;14.20;99.90
32612;DHT22;19030;49.478;8.986;2023-04-24T08:39:36;13.80;99.90
32612;DHT22;19030;49.478;8.986;2023-04-24T08:41:37;13.50;99.90
32612;DHT22;19030;49.478;8.986;2023-04-24T08:43:38;13.50;99.90
32612;DHT22;19030;49.478;8.986;2023-04-24T08:45:40;13.60;99.90
32612;DHT22;19030;49.478;8.986;2023-04-24T08:47:41;13.70;99.90
32612;DHT22;19030;49.478;8.986;2023-04-24T08:49:42;13.80;99.90
32612;DHT22;19030;49.478;8.986;2023-04-24T08:51:44;13.80;99.90
32612;DHT22;19030;49.478;8.986;2023-04-24T08:53:46;13.80;99.90
32612;DHT22;19030;49.478;8.986;2023-04-24T08:55:47;13.70;99.90
32612;DHT22;19030;49.478;8.986;2023-04-24T08:57:51;13.40;99.90
32612;DHT22;19030;49.478;8.986;2023-04-24T08:59:53;13.30;99.90
32612;DHT22;19030;49.478;8.986;2023-04-24T09:01:55;13.20;99.90
32612;DHT22;19030;49.478;8.986;2023-04-24T09:03:56;12.90;99.90
32612;DHT22;19030;49.478;8.986;2023-04-24T09:05:58;12.60;99.90
32612;DHT22;19030;49.478;8.986;2023-04-24T09:08:01;12.30;99.90
32612;DHT22;19030;49.478;8.986;2023-04-24T09:10:02;12.10;99.90
32612;DHT22;19030;49.478;8.986;2023-04-24T09:12:03;11.90;99.90
32612;DHT22;19030;49.478;8.986;2023-04-24T09:14:04;11.80;99.90
32612;DHT22;19030;49.478;8.986;2023-04-24T09:16:05;11.70;99.90
32612;DHT22;19030;49.478;8.986;2023-04-24T09:18:05;11.70;99.90
32612;DHT22;19030;49.478;8.986;2023-04-24T09:20:07;11.70;99.90
32612;DHT22;19030;49.478;8.986;2023-04-24T09:22:08;11.80;99.90
32612;DHT22;19030;49.478;8.986;2023-04-24T09:24:18;11.80;99.90
32612;DHT22;19030;49.478;8.986;2023-04-24T09:26:21;11.80;99.90
32612;DHT22;19030;49.478;8.986;2023-04-24T09:28:31;11.80;99.90
32612;DHT22;19030;49.478;8.986;2023-04-24T09:30:32;11.90;99.90
32612;DHT22;19030;49.478;8.986;2023-04-24T09:32:32;12.00;99.90
32612;DHT22;19030;49.478;8.986;2023-04-24T09:34:33;12.00;99.90
32612;DHT22;19030;49.478;8.986;2023-04-24T09:36:39;12.00;99.90
32612;DHT22;19030;49.478;8.986;2023-04-24T09:38:39;12.10;99.90
32612;DHT22;19030;49.478;8.986;2023-04-24T09:40:40;12.00;99.90
32612;DHT22;19030;49.478;8.986;2023-04-24T09:42:52;11.90;99.90
32612;DHT22;19030;49.478;8.986;2023-04-24T09:44:53;12.00;99.90
32612;DHT22;19030;49.478;8.986;2023-04-24T09:46:55;12.10;99.90
32612;DHT22;19030;49.478;8.986;2023-04-24T09:48:56;12.20;99.90
32612;DHT22;19030;49.478;8.986;2023-04-24T09:50:57;12.10;99.90
32612;DHT22;19030;49.478;8.986;2023-04-24T09:52:59;12.10;99.90
32612;DHT22;19030;49.478;8.986;2023-04-24T09:55:01;12.20;99.90
32612;DHT22;19030;49.478;8.986;2023-04-24T09:57:02;12.30;99.90
32612;DHT22;19030;49.478;8.986;2023-04-24T09:59:06;12.40;99.90
32612;DHT22;19030;49.478;8.986;2023-04-24T10:01:07;12.40;99.90
32612;DHT22;19030;49.478;8.986;2023-04-24T10:03:07;12.20;99.90
32612;DHT22;19030;49.478;8.986;2023-04-24T10:05:11;12.00;99.90
32612;DHT22;19030;49.478;8.986;2023-04-24T10:07:11;11.80;99.90
32612;DHT22;19030;49.478;8.986;2023-04-24T10:09:12;11.80;99.90
32612;DHT22;19030;49.478;8.986;2023-04-24T10:11:14;11.90;99.90
32612;DHT22;19030;49.478;8.986;2023-04-24T10:13:15;12.10;99.90
32612;DHT22;19030;49.478;8.986;2023-04-24T10:15:16;12.50;99.90
32612;DHT22;19030;49.478;8.986;2023-04-24T10:17:21;13.10;99.90
32612;DHT22;19030;49.478;8.986;2023-04-24T10:19:25;14.30;99.90
32612;DHT22;19030;49.478;8.986;2023-04-24T10:21:26;14.90;99.90
32612;DHT22;19030;49.478;8.986;2023-04-24T10:23:27;15.40;99.90
32612;DHT22;19030;49.478;8.986;2023-04-24T10:25:30;15.60;95.80
32612;DHT22;19030;49.478;8.986;2023-04-24T10:27:32;16.00;94.20
32612;DHT22;19030;49.478;8.986;2023-04-24T10:29:35;16.00;93.80
32612;DHT22;19030;49.478;8.986;2023-04-24T10:31:36;15.40;93.20
32612;DHT22;19030;49.478;8.986;2023-04-24T10:33:38;14.60;94.90
32612;DHT22;19030;49.478;8.986;2023-04-24T10:35:45;14.20;95.80
32612;DHT22;19030;49.478;8.986;2023-04-24T10:37:50;14.50;96.40
32612;DHT22;19030;49.478;8.986;2023-04-24T10:39:51;14.60;94.50
32612;DHT22;19030;49.478;8.986;2023-04-24T10:41:55;14.20;95.80
32612;DHT22;19030;49.478;8.986;2023-04-24T10:44:13;13.70;96.30
32612;DHT22;19030;49.478;8.986;2023-04-24T10:46:19;13.20;97.80
32612;DHT22;19030;49.478;8.986;2023-04-24T10:48:26;12.70;98.90
32612;DHT22;19030;49.478;8.986;2023-04-24T10:50:28;12.40;99.90
32612;DHT22;19030;49.478;8.986;2023-04-24T10:52:47;12.20;99.90
32612;DHT22;19030;49.478;8.986;2023-04-24T10:54:48;12.10;99.90
32612;DHT22;19030;49.478;8.986;2023-04-24T10:56:53;12.00;99.90
32612;DHT22;19030;49.478;8.986;2023-04-24T10:58:54;11.90;99.90
32612;DHT22;19030;49.478;8.986;2023-04-24T11:00:59;11.90;99.90
32612;DHT22;19030;49.478;8.986;2023-04-24T11:03:00;11.70;99.90
32612;DHT22;19030;49.478;8.986;2023-04-24T11:05:03;11.60;99.90
32612;DHT22;19030;49.478;8.986;2023-04-24T11:07:04;11.50;99.90
32612;DHT22;19030;49.478;8.986;2023-04-24T11:09:09;11.30;99.90
32612;DHT22;19030;49.478;8.986;2023-04-24T11:11:13;11.20;99.90
32612;DHT22;19030;49.478;8.986;2023-04-24T11:13:17;11.20;99.90
32612;DHT22;19030;49.478;8.986;2023-04-24T11:15:21;11.40;99.90
32612;DHT22;19030;49.478;8.986;2023-04-24T11:17:38;12.40;99.90
32612;DHT22;19030;49.478;8.986;2023-04-24T11:19:40;13.70;99.90
32612;DHT22;19030;49.478;8.986;2023-04-24T11:21:58;14.70;99.90
32612;DHT22;19030;49.478;8.986;2023-04-24T11:26:37;14.50;99.90
32612;DHT22;19030;49.478;8.986;2023-04-24T11:28:45;14.00;99.90
32612;DHT22;19030;49.478;8.986;2023-04-24T11:30:46;13.70;99.90
32612;DHT22;19030;49.478;8.986;2023-04-24T11:32:51;13.60;99.90
32612;DHT22;19030;49.478;8.986;2023-04-24T11:34:54;13.40;99.90
32612;DHT22;19030;49.478;8.986;2023-04-24T11:36:55;13.30;99.90
32612;DHT22;19030;49.478;8.986;2023-04-24T11:38:56;13.30;99.90
32612;DHT22;19030;49.478;8.986;2023-04-24T11:40:58;13.40;99.90
32612;DHT22;19030;49.478;8.986;2023-04-24T11:43:00;13.30;99.90
32612;DHT22;19030;49.478;8.986;2023-04-24T11:45:01;13.10;99.90
32612;DHT22;19030;49.478;8.986;2023-04-24T11:47:04;13.00;99.90
32612;DHT22;19030;49.478;8.986;2023-04-24T11:49:05;12.80;99.90
32612;DHT22;19030;49.478;8.986;2023-04-24T11:51:06;12.60;99.90
32612;DHT22;19030;49.478;8.986;2023-04-24T11:53:07;12.50;99.90
32612;DHT22;19030;49.478;8.986;2023-04-24T11:57:14;12.30;99.90
32612;DHT22;19030;49.478;8.986;2023-04-24T11:59:15;12.30;99.90
32612;DHT22;19030;49.478;8.986;2023-04-24T12:01:16;12.20;99.90
32612;DHT22;19030;49.478;8.986;2023-04-24T12:03:16;12.10;99.90
32612;DHT22;19030;49.478;8.986;2023-04-24T12:05:24;12.10;99.90
32612;DHT22;19030;49.478;8.986;2023-04-24T12:07:26;12.10;99.90
32612;DHT22;19030;49.478;8.986;2023-04-24T12:09:26;12.00;99.90
32612;DHT22;19030;49.478;8.986;2023-04-24T12:11:27;12.10;99.90
32612;DHT22;19030;49.478;8.986;2023-04-24T12:13:28;12.20;99.90
32612;DHT22;19030;49.478;8.986;2023-04-24T12:15:29;12.40;99.90
32612;DHT22;19030;49.478;8.986;2023-04-24T12:17:33;12.70;99.90
32612;DHT22;19030;49.478;8.986;2023-04-24T12:19:34;12.90;99.90
32612;DHT22;19030;49.478;8.986;2023-04-24T12:21:35;13.00;99.90
32612;DHT22;19030;49.478;8.986;2023-04-24T12:23:36;13.10;99.90
32612;DHT22;19030;49.478;8.986;2023-04-24T12:25:38;13.20;99.90
32612;DHT22;19030;49.478;8.986;2023-04-24T12:27:39;13.20;99.90
32612;DHT22;19030;49.478;8.986;2023-04-24T12:29:57;13.00;99.90
32612;DHT22;19030;49.478;8.986;2023-04-24T12:31:58;12.80;99.90
32612;DHT22;19030;49.478;8.986;2023-04-24T12:33:58;12.60;99.90
32612;DHT22;19030;49.478;8.986;2023-04-24T12:35:59;12.40;99.90
32612;DHT22;19030;49.478;8.986;2023-04-24T12:38:10;12.30;99.90
32612;DHT22;19030;49.478;8.986;2023-04-24T12:40:13;12.20;99.90
32612;DHT22;19030;49.478;8.986;2023-04-24T12:42:14;12.10;99.90
32612;DHT22;19030;49.478;8.986;2023-04-24T12:44:15;12.10;99.90
32612;DHT22;19030;49.478;8.986;2023-04-24T12:46:15;12.00;99.90
32612;DHT22;19030;49.478;8.986;2023-04-24T12:48:16;11.90;99.90
32612;DHT22;19030;49.478;8.986;2023-04-24T12:50:17;11.90;99.90
32612;DHT22;19030;49.478;8.986;2023-04-24T12:52:18;12.00;99.90
32612;DHT22;19030;49.478;8.986;2023-04-24T12:54:20;12.20;99.90
32612;DHT22;19030;49.478;8.986;2023-04-24T12:56:20;12.70;99.90
32612;DHT22;19030;49.478;8.986;2023-04-24T12:58:21;13.10;99.90